Time;durP1;ratioP1;P1;durP2;ratioP2;P2;SDS_P1;SDS_P2;PMS_P1;PMS_P2;Temp;Humidity;BMP_temperature;BMP_pressure;BME280_temperature;BME280_humidity;BME280_pressure;Samples;Min_cycle;Max_cycle;Signal;HPM_P1;HPM_P2
2023/07/25 00:00:11;;;;;;;12.50;3.25;;;13.40;99.90;;;;;;5111087;28;20043;-76
2023/07/25 00:02:37;;;;;;;9.90;3.92;;;13.40;99.90;;;;;;5114504;28;20047;-76
2023/07/25 00:05:04;;;;;;;19.15;4.13;;;13.40;99.90;;;;;;5114776;28;20470;-75
2023/07/25 00:07:30;;;;;;;10.82;3.47;;;13.30;99.90;;;;;;5113543;28;20038;-76
2023/07/25 00:09:56;;;;;;;11.75;3.85;;;13.30;99.90;;;;;;5113691;28;20435;-76
2023/07/25 00:12:23;;;;;;;14.20;4.00;;;13.20;99.90;;;;;;5103312;28;20040;-76
2023/07/25 00:14:49;;;;;;;13.35;4.10;;;13.20;99.90;;;;;;5111261;28;20040;-75
2023/07/25 00:17:15;;;;;;;13.20;4.72;;;13.20;99.90;;;;;;5106091;28;20135;-75
2023/07/25 00:19:40;;;;;;;9.45;3.75;;;13.20;99.90;;;;;;5107336;28;20071;-75
2023/07/25 00:22:06;;;;;;;14.15;4.35;;;13.20;99.90;;;;;;5111638;28;20043;-76
2023/07/25 00:24:32;;;;;;;10.43;3.50;;;13.20;99.90;;;;;;5113894;28;20498;-75
2023/07/25 00:26:57;;;;;;;12.95;4.80;;;13.10;99.90;;;;;;5113288;28;20375;-75
2023/07/25 00:29:23;;;;;;;12.15;3.58;;;13.10;99.90;;;;;;5116897;28;20104;-75
2023/07/25 00:31:49;;;;;;;12.00;3.78;;;13.10;99.90;;;;;;5116943;28;20044;-76
2023/07/25 00:34:14;;;;;;;11.00;3.92;;;13.20;99.90;;;;;;5116921;28;20035;-75
2023/07/25 00:36:40;;;;;;;16.27;3.92;;;13.10;99.90;;;;;;5107455;28;20034;-75
2023/07/25 00:39:06;;;;;;;16.83;4.25;;;13.10;99.90;;;;;;5111696;28;20046;-75
2023/07/25 00:41:31;;;;;;;10.77;3.75;;;13.10;99.90;;;;;;5115466;28;20109;-76
2023/07/25 00:43:57;;;;;;;13.75;3.78;;;13.10;99.90;;;;;;5115199;28;20520;-76
2023/07/25 00:46:23;;;;;;;14.23;3.55;;;13.20;99.90;;;;;;5113801;28;20089;-75
2023/07/25 00:48:49;;;;;;;11.93;4.47;;;13.20;99.90;;;;;;5108485;28;20115;-75
2023/07/25 00:51:15;;;;;;;11.13;3.50;;;13.10;99.90;;;;;;5112924;27;20462;-76
2023/07/25 00:53:41;;;;;;;10.73;3.67;;;13.20;99.90;;;;;;5103872;28;20548;-76
2023/07/25 00:56:09;;;;;;;15.45;4.05;;;13.20;99.90;;;;;;5112269;28;20079;-74
2023/07/25 00:58:35;;;;;;;10.93;2.80;;;13.20;99.90;;;;;;5115684;28;20135;-75
2023/07/25 01:01:05;;;;;;;24.48;4.05;;;13.10;99.90;;;;;;5102312;28;20299;-75
2023/07/25 01:03:33;;;;;;;11.57;3.80;;;13.10;99.90;;;;;;5114090;28;20040;-76
2023/07/25 01:06:03;;;;;;;;;;;13.10;99.90;;;;;;5110844;27;20611;-76
2023/07/25 01:08:28;;;;;;;15.25;3.97;;;13.10;99.90;;;;;;5106764;28;20327;-75
2023/07/25 01:10:54;;;;;;;11.70;3.50;;;13.10;99.90;;;;;;5108801;28;20040;-74
2023/07/25 01:13:20;;;;;;;10.10;3.45;;;13.10;99.90;;;;;;5110484;28;20089;-76
2023/07/25 01:15:51;;;;;;;11.77;3.53;;;13.10;99.90;;;;;;5110437;28;20516;-76
2023/07/25 01:18:16;;;;;;;14.32;3.75;;;13.10;99.90;;;;;;5108435;28;20102;-76
2023/07/25 01:20:43;;;;;;;17.35;3.97;;;13.20;99.90;;;;;;5114989;28;20397;-76
2023/07/25 01:23:10;;;;;;;16.55;4.40;;;13.10;99.90;;;;;;5112391;28;20095;-76
2023/07/25 01:25:36;;;;;;;14.27;4.78;;;13.10;99.90;;;;;;5111948;28;20119;-75
2023/07/25 01:28:02;;;;;;;9.85;3.42;;;13.10;99.90;;;;;;5110314;28;20090;-75
2023/07/25 01:30:27;;;;;;;12.93;3.72;;;13.20;99.90;;;;;;5111278;28;20343;-75
2023/07/25 01:32:54;;;;;;;10.00;4.28;;;13.20;99.90;;;;;;5109433;28;20068;-77
2023/07/25 01:35:20;;;;;;;9.45;3.42;;;13.30;99.90;;;;;;5107581;28;20040;-76
2023/07/25 01:37:46;;;;;;;12.23;3.55;;;13.30;99.90;;;;;;5116597;28;20039;-75
2023/07/25 01:40:12;;;;;;;15.45;3.65;;;13.30;99.90;;;;;;5116800;28;20035;-75
2023/07/25 01:42:38;;;;;;;9.77;4.22;;;13.40;99.90;;;;;;5115345;27;20123;-76
2023/07/25 01:45:04;;;;;;;7.38;2.85;;;13.40;99.90;;;;;;5117177;28;20333;-76
2023/07/25 01:47:30;;;;;;;11.55;4.20;;;13.40;99.90;;;;;;5104038;28;20058;-75
2023/07/25 01:49:55;;;;;;;12.10;3.45;;;13.40;99.90;;;;;;5113476;28;20032;-75
2023/07/25 01:52:21;;;;;;;9.95;3.25;;;13.40;99.90;;;;;;5115219;28;20092;-75
2023/07/25 01:54:49;;;;;;;7.32;3.45;;;13.40;99.90;;;;;;5111424;28;20556;-76
2023/07/25 01:57:15;;;;;;;10.80;3.17;;;13.50;99.90;;;;;;5114475;28;20102;-76
2023/07/25 01:59:41;;;;;;;13.25;3.33;;;13.50;99.90;;;;;;5114770;28;20043;-74
2023/07/25 02:02:06;;;;;;;10.50;3.67;;;13.50;99.90;;;;;;5110209;28;20366;-75
2023/07/25 02:04:32;;;;;;;10.20;3.30;;;13.50;99.90;;;;;;5109996;28;20076;-74
2023/07/25 02:06:58;;;;;;;15.15;3.88;;;13.50;99.90;;;;;;5109051;28;20039;-75
2023/07/25 02:09:24;;;;;;;12.85;3.42;;;13.50;99.90;;;;;;5103009;28;20122;-76
2023/07/25 02:11:49;;;;;;;13.00;3.83;;;13.50;99.90;;;;;;5110899;28;20102;-76
2023/07/25 02:14:15;;;;;;;12.75;3.45;;;13.50;99.90;;;;;;5098782;28;20050;-74
2023/07/25 02:16:41;;;;;;;17.60;4.63;;;13.50;99.90;;;;;;5107321;28;20058;-76
2023/07/25 02:19:07;;;;;;;13.68;3.70;;;13.50;99.90;;;;;;5111695;28;20386;-75
2023/07/25 02:21:33;;;;;;;12.32;3.65;;;13.50;99.90;;;;;;5110847;28;20042;-75
2023/07/25 02:24:00;;;;;;;10.32;3.33;;;13.50;99.90;;;;;;5090159;28;20081;-75
2023/07/25 02:26:25;;;;;;;13.25;3.67;;;13.50;99.90;;;;;;5104688;28;20493;-75
2023/07/25 02:28:51;;;;;;;11.57;3.90;;;13.50;99.90;;;;;;5111254;28;20040;-75
2023/07/25 02:31:18;;;;;;;9.35;3.72;;;13.50;99.90;;;;;;5102817;28;20515;-75
2023/07/25 02:33:43;;;;;;;11.32;3.47;;;13.50;99.90;;;;;;5108458;28;20067;-75
2023/07/25 02:36:12;;;;;;;9.18;3.33;;;13.50;99.90;;;;;;5105780;28;20091;-75
2023/07/25 02:38:39;;;;;;;20.65;5.57;;;13.40;99.90;;;;;;5109438;28;20050;-75
2023/07/25 02:41:04;;;;;;;12.90;3.75;;;13.50;99.90;;;;;;5109195;28;20043;-75
2023/07/25 02:43:30;;;;;;;9.82;3.75;;;13.50;99.90;;;;;;5104949;28;20032;-75
2023/07/25 02:45:55;;;;;;;17.23;3.55;;;13.50;99.90;;;;;;5100392;28;20097;-76
2023/07/25 02:48:21;;;;;;;11.70;3.58;;;13.50;99.90;;;;;;5107473;28;20082;-76
2023/07/25 02:50:47;;;;;;;15.18;4.00;;;13.50;99.90;;;;;;5111376;28;20039;-75
2023/07/25 02:53:15;;;;;;;10.82;3.47;;;13.60;99.90;;;;;;5107658;28;20040;-75
2023/07/25 02:55:41;;;;;;;10.02;3.40;;;13.60;99.90;;;;;;5103844;28;20043;-75
2023/07/25 02:58:07;;;;;;;11.90;3.35;;;13.60;99.90;;;;;;5106044;28;20079;-76
2023/07/25 03:00:33;;;;;;;14.07;3.72;;;13.50;99.90;;;;;;5109471;28;20494;-76
2023/07/25 03:02:58;;;;;;;9.50;3.40;;;13.60;99.90;;;;;;5107140;28;20051;-76
2023/07/25 03:05:27;;;;;;;8.40;3.50;;;13.60;99.90;;;;;;5110135;28;20063;-76
2023/07/25 03:07:53;;;;;;;17.27;3.58;;;13.60;99.90;;;;;;5105734;28;20116;-76
2023/07/25 03:10:18;;;;;;;15.35;3.35;;;13.60;99.90;;;;;;5107376;28;20089;-75
2023/07/25 03:12:44;;;;;;;16.45;4.13;;;13.60;99.90;;;;;;5105537;28;20039;-75
2023/07/25 03:15:10;;;;;;;10.82;3.85;;;13.60;99.90;;;;;;5105260;28;20118;-75
2023/07/25 03:17:36;;;;;;;10.98;2.95;;;13.70;99.90;;;;;;5112800;27;20040;-75
2023/07/25 03:20:02;;;;;;;11.35;3.50;;;13.70;99.90;;;;;;5113718;28;20097;-76
2023/07/25 03:22:30;;;;;;;8.15;3.92;;;13.70;99.90;;;;;;5109704;28;20072;-75
2023/07/25 03:24:56;;;;;;;8.10;3.22;;;13.70;99.90;;;;;;5113584;28;20067;-74
2023/07/25 03:27:22;;;;;;;12.80;3.80;;;13.70;99.90;;;;;;5110825;28;20540;-75
2023/07/25 03:29:47;;;;;;;13.55;4.65;;;13.70;99.90;;;;;;5113170;28;20067;-76
2023/07/25 03:32:16;;;;;;;15.10;3.83;;;13.70;99.90;;;;;;5111604;28;20048;-75
2023/07/25 03:34:42;;;;;;;12.82;3.00;;;13.70;99.90;;;;;;5113826;28;20036;-74
2023/07/25 03:37:07;;;;;;;19.05;3.92;;;13.70;99.90;;;;;;5110639;28;20038;-76
2023/07/25 03:39:33;;;;;;;10.63;3.40;;;13.70;99.90;;;;;;5113599;28;20078;-75
2023/07/25 03:41:59;;;;;;;10.57;3.20;;;13.70;99.90;;;;;;5109651;28;20062;-75
2023/07/25 03:44:25;;;;;;;16.65;3.90;;;13.70;99.90;;;;;;5113308;28;20043;-75
2023/07/25 03:46:51;;;;;;;10.63;3.83;;;13.60;99.90;;;;;;5113341;28;20043;-75
2023/07/25 03:49:17;;;;;;;11.40;3.50;;;13.70;99.90;;;;;;5114783;28;20101;-75
2023/07/25 03:51:42;;;;;;;10.88;3.90;;;13.70;99.90;;;;;;5112858;28;20048;-75
2023/07/25 03:54:08;;;;;;;12.07;3.53;;;13.70;99.90;;;;;;5110465;28;20091;-74
2023/07/25 03:56:35;;;;;;;10.57;3.47;;;13.70;99.90;;;;;;5109512;28;20489;-75
2023/07/25 03:59:00;;;;;;;15.65;4.00;;;13.70;99.90;;;;;;5112273;28;20050;-75
2023/07/25 04:01:26;;;;;;;11.80;3.38;;;13.70;99.90;;;;;;5111639;28;20035;-75
2023/07/25 04:03:52;;;;;;;11.38;3.95;;;13.60;99.90;;;;;;5112494;28;20040;-75
2023/07/25 04:06:19;;;;;;;13.43;3.85;;;13.60;99.90;;;;;;5103858;28;20397;-76
2023/07/25 04:08:45;;;;;;;13.73;4.10;;;13.60;99.90;;;;;;5088526;28;20050;-75
2023/07/25 04:11:12;;;;;;;14.93;3.10;;;13.60;99.90;;;;;;5107337;28;20050;-76
2023/07/25 04:13:38;;;;;;;13.88;3.80;;;13.50;99.90;;;;;;5111621;27;20576;-75
2023/07/25 04:16:04;;;;;;;12.60;3.83;;;13.50;99.90;;;;;;5115883;28;20086;-75
2023/07/25 04:18:30;;;;;;;15.45;3.65;;;13.50;99.90;;;;;;5111699;28;20052;-75
2023/07/25 04:20:59;;;;;;;15.15;3.78;;;13.50;99.90;;;;;;5113513;28;20100;-74
2023/07/25 04:23:26;;;;;;;14.90;3.92;;;13.50;99.90;;;;;;5108748;28;20547;-75
2023/07/25 04:25:51;;;;;;;17.35;4.05;;;13.50;99.90;;;;;;5111988;28;20082;-75
2023/07/25 04:28:17;;;;;;;11.88;3.15;;;13.50;99.90;;;;;;5114301;28;20047;-75
2023/07/25 04:30:43;;;;;;;10.43;3.40;;;13.50;99.90;;;;;;5112637;28;20036;-76
2023/07/25 04:33:10;;;;;;;18.23;3.72;;;13.50;99.90;;;;;;5094796;28;20048;-76
2023/07/25 04:35:35;;;;;;;7.82;3.00;;;13.50;99.90;;;;;;5106993;28;20039;-75
2023/07/25 04:38:01;;;;;;;11.25;3.00;;;13.50;99.90;;;;;;5085604;28;20112;-75
2023/07/25 04:40:28;;;;;;;13.95;3.13;;;13.50;99.90;;;;;;5109757;28;20040;-75
2023/07/25 04:42:54;;;;;;;10.60;3.50;;;13.60;99.90;;;;;;5107996;28;20633;-76
2023/07/25 04:45:20;;;;;;;11.73;3.55;;;13.60;99.90;;;;;;5099247;28;20047;-76
2023/07/25 04:47:46;;;;;;;8.13;3.45;;;13.60;99.90;;;;;;5090529;28;20493;-76
2023/07/25 04:50:11;;;;;;;8.68;3.55;;;13.60;99.90;;;;;;5110669;28;20039;-75
2023/07/25 04:52:37;;;;;;;12.35;3.60;;;13.60;99.90;;;;;;5093002;28;20436;-74
2023/07/25 04:55:03;;;;;;;19.25;4.43;;;13.60;99.90;;;;;;5099509;28;20081;-77
2023/07/25 04:57:28;;;;;;;14.93;4.07;;;13.60;99.90;;;;;;5106436;28;20114;-76
2023/07/25 04:59:54;;;;;;;9.52;2.70;;;13.70;99.90;;;;;;5105769;28;20044;-75
2023/07/25 05:02:21;;;;;;;12.85;3.20;;;13.70;99.90;;;;;;5104042;28;20048;-75
2023/07/25 05:04:46;;;;;;;10.32;3.70;;;13.80;99.90;;;;;;5108689;28;20147;-74
2023/07/25 05:07:17;;;;;;;9.52;3.10;;;13.80;99.90;;;;;;5104499;27;20067;-75
2023/07/25 05:09:42;;;;;;;11.55;2.95;;;13.80;99.90;;;;;;5107067;28;20042;-75
2023/07/25 05:12:13;;;;;;;20.10;3.95;;;13.80;99.90;;;;;;5104890;28;20048;-75
2023/07/25 05:14:39;;;;;;;13.50;3.42;;;13.80;99.90;;;;;;5104184;28;20053;-75
2023/07/25 05:17:05;;;;;;;15.30;2.95;;;13.80;99.90;;;;;;5102570;28;20043;-74
2023/07/25 05:19:31;;;;;;;12.07;3.13;;;13.80;99.90;;;;;;5113420;28;20489;-75
2023/07/25 05:21:56;;;;;;;17.00;2.83;;;13.80;99.90;;;;;;5112677;28;20401;-75
2023/07/25 05:24:23;;;;;;;9.88;2.70;;;13.80;99.90;;;;;;5109398;28;20032;-75
2023/07/25 05:26:49;;;;;;;15.20;3.63;;;13.80;99.90;;;;;;5105377;28;20040;-75
2023/07/25 05:29:15;;;;;;;14.15;3.38;;;13.80;99.90;;;;;;5101634;28;20042;-75
2023/07/25 05:31:40;;;;;;;11.25;2.95;;;13.80;99.90;;;;;;5100132;28;20118;-75
2023/07/25 05:34:06;;;;;;;16.83;4.15;;;13.70;99.90;;;;;;5105242;28;20076;-75
2023/07/25 05:36:32;;;;;;;12.43;3.85;;;13.80;99.90;;;;;;5110743;28;20038;-74
2023/07/25 05:38:57;;;;;;;9.00;2.30;;;13.90;99.90;;;;;;5110089;28;20461;-74
2023/07/25 05:41:23;;;;;;;14.38;3.13;;;14.00;99.90;;;;;;5111901;28;20070;-75
2023/07/25 05:43:49;;;;;;;13.88;3.20;;;14.00;99.90;;;;;;5108248;28;20066;-75
2023/07/25 05:46:14;;;;;;;14.77;3.35;;;13.90;99.90;;;;;;5102131;28;20147;-75
2023/07/25 05:48:43;;;;;;;12.00;3.28;;;14.00;99.90;;;;;;5112069;28;20041;-74
2023/07/25 05:51:11;;;;;;;11.63;2.97;;;13.90;99.90;;;;;;5110754;28;20050;-76
2023/07/25 05:53:37;;;;;;;12.88;2.85;;;13.90;99.90;;;;;;5108104;28;20067;-76
2023/07/25 05:56:03;;;;;;;13.95;2.70;;;14.00;99.90;;;;;;5100986;28;20078;-74
2023/07/25 05:58:28;;;;;;;10.20;2.80;;;14.10;99.90;;;;;;5106226;28;20047;-75
2023/07/25 06:00:54;;;;;;;15.73;3.25;;;14.20;99.90;;;;;;5110460;28;20373;-76
2023/07/25 06:03:21;;;;;;;9.65;2.80;;;14.30;99.90;;;;;;5110499;28;20459;-75
2023/07/25 06:05:47;;;;;;;11.93;3.30;;;14.40;99.90;;;;;;5103858;28;20044;-76
2023/07/25 06:08:13;;;;;;;13.68;3.08;;;14.70;99.90;;;;;;5106123;28;20040;-75
2023/07/25 06:10:42;;;;;;;15.00;4.05;;;15.00;99.90;;;;;;5111017;28;20032;-75
2023/07/25 06:13:07;;;;;;;6.65;2.70;;;15.20;99.90;;;;;;5108245;28;20338;-76
2023/07/25 06:15:34;;;;;;;12.07;2.75;;;15.30;99.90;;;;;;5114579;28;20126;-74
2023/07/25 06:18:04;;;;;;;13.57;3.35;;;15.50;99.90;;;;;;5116023;28;20493;-76
2023/07/25 06:20:32;;;;;;;10.70;2.85;;;15.50;99.90;;;;;;5110253;28;20055;-75
2023/07/25 06:23:01;;;;;;;23.52;3.47;;;15.60;99.90;;;;;;5102753;28;20087;-76
2023/07/25 06:25:28;;;;;;;13.57;3.20;;;15.60;99.90;;;;;;5116623;28;20036;-76
2023/07/25 06:27:54;;;;;;;13.55;3.22;;;15.60;99.90;;;;;;5113628;28;20042;-75
2023/07/25 06:30:20;;;;;;;11.50;2.70;;;15.70;99.90;;;;;;5113082;28;20040;-76
2023/07/25 06:32:46;;;;;;;11.50;2.67;;;15.80;99.90;;;;;;5115418;28;20040;-76
2023/07/25 06:35:12;;;;;;;11.10;2.33;;;15.90;99.90;;;;;;5111866;28;20040;-75
2023/07/25 06:37:38;;;;;;;14.20;2.30;;;15.90;99.90;;;;;;5112865;28;20118;-76
2023/07/25 06:40:04;;;;;;;9.27;2.30;;;16.00;99.90;;;;;;5111003;28;20111;-75
2023/07/25 06:42:31;;;;;;;11.02;2.40;;;16.00;99.90;;;;;;5109404;28;20050;-75
2023/07/25 06:44:57;;;;;;;8.02;1.77;;;16.10;99.90;;;;;;5102185;28;20116;-77
2023/07/25 06:47:23;;;;;;;9.93;2.05;;;16.30;99.90;;;;;;5111641;28;20051;-76
2023/07/25 06:49:49;;;;;;;9.00;2.20;;;16.40;99.90;;;;;;5111367;28;20035;-76
2023/07/25 06:52:15;;;;;;;9.68;2.60;;;16.40;99.90;;;;;;5111617;28;20127;-75
2023/07/25 06:54:42;;;;;;;6.95;2.38;;;16.50;99.90;;;;;;5110746;28;20048;-75
2023/07/25 06:57:08;;;;;;;9.55;2.13;;;16.60;99.90;;;;;;5109165;28;20118;-76
2023/07/25 06:59:34;;;;;;;5.72;1.73;;;16.60;99.90;;;;;;5102911;28;20219;-76
2023/07/25 07:01:59;;;;;;;8.23;1.80;;;16.70;99.90;;;;;;5112374;28;20050;-76
2023/07/25 07:04:25;;;;;;;8.63;2.10;;;16.80;99.90;;;;;;5109475;28;20043;-77
2023/07/25 07:06:51;;;;;;;6.65;1.98;;;16.80;99.90;;;;;;5093573;28;20473;-76
2023/07/25 07:09:16;;;;;;;6.00;1.60;;;16.70;99.90;;;;;;5103228;28;20088;-76
2023/07/25 07:11:42;;;;;;;5.00;1.45;;;16.60;99.90;;;;;;5110260;28;20036;-76
2023/07/25 07:14:07;;;;;;;4.57;1.30;;;16.60;99.90;;;;;;5112950;28;20038;-76
2023/07/25 07:16:34;;;;;;;10.63;1.55;;;16.50;99.90;;;;;;5104630;28;20039;-76
2023/07/25 07:19:00;;;;;;;7.18;1.67;;;16.60;99.90;;;;;;5105297;28;20040;-75
2023/07/25 07:21:25;;;;;;;4.97;1.30;;;16.60;99.90;;;;;;5110638;28;20042;-76
2023/07/25 07:23:51;;;;;;;6.30;1.35;;;16.60;99.90;;;;;;5101610;28;20117;-76
2023/07/25 07:26:17;;;;;;;12.90;1.60;;;16.60;99.90;;;;;;5107762;28;20040;-76
2023/07/25 07:28:42;;;;;;;9.00;1.55;;;16.70;99.90;;;;;;5110117;28;20032;-75
2023/07/25 07:31:12;;;;;;;4.80;1.42;;;16.80;99.90;;;;;;5111267;28;20397;-75
2023/07/25 07:33:39;;;;;;;7.50;1.80;;;16.80;99.90;;;;;;5111586;28;20040;-76
2023/07/25 07:36:05;;;;;;;5.93;1.50;;;16.90;99.90;;;;;;5110540;28;20043;-76
2023/07/25 07:38:31;;;;;;;8.85;2.10;;;17.00;99.90;;;;;;5114755;28;20058;-75
2023/07/25 07:40:56;;;;;;;6.20;1.40;;;17.00;99.90;;;;;;5104734;28;20043;-76
2023/07/25 07:43:22;;;;;;;3.38;1.02;;;17.00;99.90;;;;;;5110531;28;20032;-76
2023/07/25 07:45:49;;;;;;;7.55;2.47;;;16.80;99.90;;;;;;5111070;28;20063;-77
2023/07/25 07:48:15;;;;;;;4.45;1.38;;;16.70;99.90;;;;;;5101951;28;20051;-75
2023/07/25 07:50:42;;;;;;;3.60;1.30;;;16.80;99.90;;;;;;5113103;28;20059;-76
2023/07/25 07:53:09;;;;;;;7.97;1.83;;;16.90;99.90;;;;;;5106402;28;20051;-76
2023/07/25 07:55:34;;;;;;;6.53;1.55;;;17.10;99.90;;;;;;5108355;28;20050;-77
2023/07/25 07:58:00;;;;;;;6.57;1.52;;;17.20;99.90;;;;;;5105394;28;20036;-75
2023/07/25 08:00:26;;;;;;;5.55;1.40;;;17.30;99.90;;;;;;5109891;28;20047;-77
2023/07/25 08:02:51;;;;;;;4.30;1.38;;;17.40;99.90;;;;;;5113096;28;20036;-76
2023/07/25 08:05:18;;;;;;;4.20;1.30;;;17.50;99.90;;;;;;5110998;28;20040;-77
2023/07/25 08:07:44;;;;;;;13.57;1.63;;;17.60;99.90;;;;;;5109288;28;20116;-75
2023/07/25 08:10:10;;;;;;;9.25;1.50;;;17.50;99.90;;;;;;5114815;28;20509;-76
2023/07/25 08:12:35;;;;;;;6.18;1.60;;;17.60;99.90;;;;;;5108393;28;20121;-75
2023/07/25 08:15:01;;;;;;;3.17;1.20;;;17.70;99.90;;;;;;5113151;28;20073;-75
2023/07/25 08:17:27;;;;;;;5.40;1.40;;;17.90;99.90;;;;;;5112995;28;20798;-74
2023/07/25 08:19:53;;;;;;;5.50;1.60;;;17.90;99.90;;;;;;5111209;28;20059;-76
2023/07/25 08:22:18;;;;;;;7.25;1.52;;;17.90;99.90;;;;;;5111914;28;20036;-75
2023/07/25 08:24:44;;;;;;;5.20;1.50;;;18.00;99.90;;;;;;5112460;28;20071;-76
2023/07/25 08:27:10;;;;;;;6.60;1.50;;;18.00;99.90;;;;;;5090892;28;20048;-75
2023/07/25 08:29:40;;;;;;;9.27;1.40;;;18.00;99.40;;;;;;5113384;28;20492;-75
2023/07/25 08:32:07;;;;;;;4.70;1.55;;;18.10;99.50;;;;;;5114802;28;20062;-77
2023/07/25 08:34:33;;;;;;;8.55;1.35;;;18.10;99.90;;;;;;5114082;27;20371;-74
2023/07/25 08:36:58;;;;;;;12.18;1.60;;;18.20;99.90;;;;;;5109757;28;20036;-75
2023/07/25 08:39:24;;;;;;;5.85;1.90;;;18.30;99.90;;;;;;5112242;28;20040;-76
2023/07/25 08:41:53;;;;;;;6.15;1.48;;;18.40;99.90;;;;;;5109285;28;20085;-75
2023/07/25 08:44:22;;;;;;;8.23;2.20;;;18.40;99.80;;;;;;5114806;27;20047;-75
2023/07/25 08:46:51;;;;;;;9.25;2.42;;;18.20;98.90;;;;;;5112336;28;20043;-74
2023/07/25 08:49:24;;;;;;;6.47;1.30;;;18.00;99.40;;;;;;5106048;28;20040;-74
2023/07/25 08:51:54;;;;;;;7.53;2.17;;;18.00;99.90;;;;;;5097451;28;20096;-74
2023/07/25 08:54:34;;;;;;;7.18;1.90;;;18.10;99.90;;;;;;5101535;28;20105;-74
2023/07/25 08:57:00;;;;;;;3.65;1.13;;;18.40;99.90;;;;;;5108166;28;20413;-74
2023/07/25 08:59:27;;;;;;;8.50;1.58;;;18.60;98.10;;;;;;5113523;28;20040;-74
2023/07/25 09:01:53;;;;;;;4.10;1.23;;;18.60;99.00;;;;;;5108810;28;20082;-75
2023/07/25 09:04:25;;;;;;;6.07;1.40;;;18.70;99.50;;;;;;5108880;28;20110;-76
2023/07/25 09:06:50;;;;;;;9.45;1.50;;;18.70;98.30;;;;;;5107604;27;20456;-74
2023/07/25 09:09:17;;;;;;;6.00;1.35;;;18.60;97.90;;;;;;5104989;28;20071;-74
2023/07/25 09:11:44;;;;;;;6.13;2.00;;;18.40;97.50;;;;;;5110310;28;20044;-75
2023/07/25 09:14:11;;;;;;;4.30;1.10;;;18.30;97.00;;;;;;5109421;28;20160;-76
2023/07/25 09:16:37;;;;;;;10.43;1.58;;;18.30;97.60;;;;;;5101384;28;20047;-74
2023/07/25 09:19:03;;;;;;;3.85;1.25;;;18.40;97.90;;;;;;5110557;28;20044;-74
2023/07/25 09:21:28;;;;;;;3.80;1.50;;;18.70;98.00;;;;;;5113726;28;20104;-74
2023/07/25 09:23:55;;;;;;;8.30;1.33;;;18.80;96.40;;;;;;5108119;28;20401;-76
2023/07/25 09:26:22;;;;;;;6.03;1.33;;;18.70;97.40;;;;;;5107397;28;20616;-74
2023/07/25 09:28:50;;;;;;;5.25;1.20;;;18.60;95.90;;;;;;5100409;28;20119;-74
2023/07/25 09:31:16;;;;;;;12.70;1.95;;;18.40;96.00;;;;;;5084805;28;20122;-74
2023/07/25 09:33:50;;;;;;;7.03;1.50;;;18.30;97.40;;;;;;5112607;28;20046;-74
2023/07/25 09:36:18;;;;;;;14.25;1.52;;;18.30;98.80;;;;;;5111666;28;20047;-75
2023/07/25 09:38:54;;;;;;;9.93;1.52;;;18.30;99.60;;;;;;5110121;28;20043;-74
2023/07/25 09:41:24;;;;;;;7.82;1.50;;;18.20;99.40;;;;;;5109301;28;20472;-75
2023/07/25 09:43:50;;;;;;;5.35;1.80;;;18.00;99.90;;;;;;5112200;28;20044;-76
2023/07/25 09:46:16;;;;;;;7.18;1.55;;;17.90;99.90;;;;;;5109414;28;20112;-75
2023/07/25 09:48:50;;;;;;;8.48;1.40;;;18.00;99.90;;;;;;5109324;28;20113;-74
2023/07/25 09:51:16;;;;;;;6.38;1.98;;;18.20;99.90;;;;;;5090177;28;20039;-75
2023/07/25 09:53:49;;;;;;;5.07;1.58;;;18.30;99.90;;;;;;5108824;28;20031;-75
2023/07/25 09:56:15;;;;;;;7.97;1.50;;;18.60;99.50;;;;;;5106591;28;20055;-76
2023/07/25 09:58:41;;;;;;;5.32;1.85;;;18.70;99.50;;;;;;5111356;28;20369;-75
2023/07/25 10:01:10;;;;;;;7.43;1.90;;;18.70;98.80;;;;;;5112183;28;20118;-75
2023/07/25 10:03:36;;;;;;;5.07;1.67;;;18.60;99.20;;;;;;5104496;28;20047;-75
2023/07/25 10:06:04;;;;;;;4.25;1.23;;;18.50;99.30;;;;;;5113107;28;20035;-75
2023/07/25 10:08:30;;;;;;;;;;;18.50;98.50;;;;;;5111418;28;20100;-75
2023/07/25 10:10:56;;;;;;;8.25;1.73;;;18.50;98.80;;;;;;5110535;28;19920;-74
2023/07/25 10:13:23;;;;;;;7.35;1.90;;;18.40;98.00;;;;;;5104394;28;20496;-75
2023/07/25 10:15:50;;;;;;;7.45;1.70;;;18.40;98.20;;;;;;5113276;28;20434;-76
2023/07/25 10:18:20;;;;;;;9.13;1.42;;;18.40;98.70;;;;;;5099588;28;20056;-76
2023/07/25 10:20:47;;;;;;;6.43;1.60;;;18.60;98.70;;;;;;5112340;28;20078;-75
2023/07/25 10:23:14;;;;;;;15.07;2.35;;;18.70;96.80;;;;;;5105965;28;20050;-75
2023/07/25 10:25:40;;;;;;;11.02;1.88;;;18.60;97.50;;;;;;5113708;28;20052;-74
2023/07/25 10:28:06;;;;;;;5.28;1.17;;;18.50;98.20;;;;;;5112510;28;20092;-76
2023/07/25 10:30:42;;;;;;;4.45;1.65;;;18.40;96.20;;;;;;5112073;28;20040;-75
2023/07/25 10:33:08;;;;;;;2.97;1.25;;;18.30;96.00;;;;;;5109556;28;20568;-75
2023/07/25 10:35:54;;;;;;;4.75;1.20;;;18.20;96.80;;;;;;5106569;28;20044;-75
2023/07/25 10:38:21;;;;;;;3.58;1.20;;;18.30;97.50;;;;;;5094176;28;20090;-74
2023/07/25 10:40:58;;;;;;;5.10;1.38;;;18.60;98.60;;;;;;5107925;28;20478;-75
2023/07/25 10:43:52;;;;;;;10.45;2.22;;;19.00;97.40;;;;;;5100921;28;20600;-76
2023/07/25 10:46:19;;;;;;;5.38;1.30;;;19.50;96.40;;;;;;5109591;28;20062;-75
2023/07/25 10:49:14;;;;;;;7.15;1.45;;;19.70;96.30;;;;;;5113277;28;20042;-75
2023/07/25 10:51:49;;;;;;;6.00;1.48;;;19.70;95.20;;;;;;5113958;28;20109;-75
2023/07/25 10:54:19;;;;;;;3.45;1.10;;;19.40;95.10;;;;;;5112977;28;20152;-74
2023/07/25 10:57:24;;;;;;;6.82;1.83;;;19.20;95.00;;;;;;5118647;28;20119;-75
2023/07/25 11:00:05;;;;;;;8.73;1.65;;;18.90;95.00;;;;;;5090239;28;20040;-74
2023/07/25 11:02:42;;;;;;;5.75;1.50;;;18.80;95.20;;;;;;5095545;28;20060;-75
2023/07/25 11:05:14;;;;;;;6.10;1.70;;;18.90;95.90;;;;;;5104575;28;20078;-74
2023/07/25 11:07:45;;;;;;;6.32;1.25;;;18.90;95.40;;;;;;5109562;28;20036;-74
2023/07/25 11:10:12;;;;;;;7.53;1.25;;;18.90;95.60;;;;;;5111990;28;20059;-75
2023/07/25 11:12:37;;;;;;;7.55;1.70;;;19.00;96.50;;;;;;5103444;28;20039;-74
2023/07/25 11:15:03;;;;;;;6.07;1.60;;;19.10;96.80;;;;;;5107041;28;20036;-76
2023/07/25 11:17:29;;;;;;;6.10;1.42;;;19.30;96.00;;;;;;5108244;28;20056;-74
2023/07/25 11:20:11;;;;;;;3.72;1.20;;;19.40;94.80;;;;;;5104695;28;20040;-74
2023/07/25 11:22:36;;;;;;;8.20;1.42;;;19.70;94.40;;;;;;5109201;28;20402;-76
2023/07/25 11:25:07;;;;;;;7.03;1.27;;;20.00;94.30;;;;;;5114302;28;20050;-75
2023/07/25 11:27:33;;;;;;;8.27;1.42;;;20.20;93.40;;;;;;5108414;28;20089;-74
2023/07/25 11:30:33;;;;;;;5.88;1.40;;;19.90;93.00;;;;;;5110624;28;20046;-74
2023/07/25 11:32:59;;;;;;;3.03;1.00;;;19.90;95.20;;;;;;5109257;28;20110;-73
2023/07/25 11:35:24;;;;;;;4.90;1.75;;;19.90;92.90;;;;;;5101313;28;20173;-75
2023/07/25 11:37:59;;;;;;;5.63;1.30;;;19.70;92.00;;;;;;5108732;28;20160;-76
2023/07/25 11:40:27;;;;;;;3.53;0.98;;;19.60;92.80;;;;;;5108295;28;20048;-76
2023/07/25 11:42:53;;;;;;;4.75;1.30;;;19.50;92.60;;;;;;5113628;28;20394;-75
2023/07/25 11:45:20;;;;;;;3.53;1.20;;;19.40;92.40;;;;;;5106126;28;20047;-75
2023/07/25 11:47:48;;;;;;;5.00;1.60;;;19.30;92.10;;;;;;5109518;28;20048;-76
2023/07/25 11:50:14;;;;;;;6.10;1.38;;;19.30;92.60;;;;;;5111246;28;20561;-76
2023/07/25 11:52:43;;;;;;;2.53;0.90;;;19.40;92.50;;;;;;5113036;28;20043;-75
2023/07/25 11:55:09;;;;;;;6.90;1.30;;;19.40;92.90;;;;;;5112686;28;20044;-76
2023/07/25 11:57:42;;;;;;;3.50;1.30;;;19.40;93.00;;;;;;5108324;28;20087;-76
2023/07/25 12:00:11;;;;;;;4.65;1.50;;;19.50;93.90;;;;;;5112659;27;20070;-75
2023/07/25 12:02:40;;;;;;;4.78;1.17;;;19.60;93.40;;;;;;5108134;28;20043;-75
2023/07/25 12:05:07;;;;;;;4.47;1.20;;;19.70;91.90;;;;;;5115236;28;20042;-76
2023/07/25 12:07:53;;;;;;;5.45;1.17;;;19.70;91.70;;;;;;5109142;28;20050;-75
2023/07/25 12:10:26;;;;;;;7.28;1.80;;;19.60;92.80;;;;;;5107557;28;20036;-74
2023/07/25 12:12:52;;;;;;;7.68;1.20;;;19.60;92.70;;;;;;5110098;27;20486;-75
2023/07/25 12:15:18;;;;;;;6.82;1.73;;;19.40;92.90;;;;;;5111615;28;20071;-74
2023/07/25 12:17:44;;;;;;;5.35;1.13;;;19.20;92.70;;;;;;5111608;28;20540;-74
2023/07/25 12:20:14;;;;;;;4.45;1.08;;;19.10;92.90;;;;;;5112438;28;20049;-74
2023/07/25 12:22:39;;;;;;;3.03;1.10;;;19.10;93.20;;;;;;5104567;28;20482;-76
2023/07/25 12:25:06;;;;;;;6.20;1.38;;;19.20;93.50;;;;;;5109572;28;20036;-75
2023/07/25 12:27:31;;;;;;;3.92;1.10;;;19.40;92.50;;;;;;5110062;28;20079;-76
2023/07/25 12:29:57;;;;;;;6.30;1.10;;;19.60;93.20;;;;;;5114044;28;20081;-75
2023/07/25 12:32:23;;;;;;;5.70;1.40;;;19.70;93.20;;;;;;5105670;28;20374;-77
2023/07/25 12:34:49;;;;;;;4.38;1.17;;;19.70;93.30;;;;;;5109649;28;20122;-75
2023/07/25 12:37:14;;;;;;;9.68;1.50;;;19.70;93.30;;;;;;5106522;28;20404;-77
2023/07/25 12:39:40;;;;;;;4.03;1.05;;;19.90;93.50;;;;;;5103541;28;20421;-77
2023/07/25 12:42:06;;;;;;;1.95;1.20;;;20.30;92.30;;;;;;5111248;28;20442;-77